Terminal Aerodrome Forecast
Issued by NWS

Current Version | Previous Version | Text Only | Print | Product List | Glossary On
Versions: 1 2 3 4 5 6 7 8 9 10 11 12
000
FTAK31 PAJN 011700
TAFAKT
TAF
PAKT 011735Z 0118/0218 32008KT P6SM FEW006 OVC015
     FM012300 33011KT P6SM SCT015
     FM020500 31007KT P6SM SKC
      AMD LTD TO CLD VIS AND WIND 0206/0215=

USA.gov is the U.S. government's official web portal to all federal, state and local government web resources and services.